sensor_id;sensor_type;location;lat;lon;timestamp;P1;durP1;ratioP1;P2;durP2;ratioP2
36315;SDS011;22343;50.820;2.666;2024-02-26T00:00:27;4.43;;;2.97;;
36315;SDS011;22343;50.820;2.666;2024-02-26T00:03:15;4.10;;;2.30;;
36315;SDS011;22343;50.820;2.666;2024-02-26T00:06:01;2.77;;;2.20;;
36315;SDS011;22343;50.820;2.666;2024-02-26T00:08:50;4.93;;;2.70;;
36315;SDS011;22343;50.820;2.666;2024-02-26T00:11:37;3.73;;;2.77;;
36315;SDS011;22343;50.820;2.666;2024-02-26T00:14:32;2.93;;;2.13;;
36315;SDS011;22343;50.820;2.666;2024-02-26T00:17:18;3.27;;;2.37;;
36315;SDS011;22343;50.820;2.666;2024-02-26T00:20:04;2.77;;;2.30;;
36315;SDS011;22343;50.820;2.666;2024-02-26T00:22:53;4.50;;;2.60;;
36315;SDS011;22343;50.820;2.666;2024-02-26T00:25:37;4.67;;;2.50;;
36315;SDS011;22343;50.820;2.666;2024-02-26T00:28:23;4.23;;;3.10;;
36315;SDS011;22343;50.820;2.666;2024-02-26T00:31:10;3.50;;;2.90;;
36315;SDS011;22343;50.820;2.666;2024-02-26T00:33:55;3.70;;;3.03;;
36315;SDS011;22343;50.820;2.666;2024-02-26T00:36:42;3.73;;;2.50;;
36315;SDS011;22343;50.820;2.666;2024-02-26T00:39:28;2.07;;;1.87;;
36315;SDS011;22343;50.820;2.666;2024-02-26T00:42:14;3.57;;;2.33;;
36315;SDS011;22343;50.820;2.666;2024-02-26T00:44:59;3.73;;;2.20;;
36315;SDS011;22343;50.820;2.666;2024-02-26T00:47:44;3.70;;;2.40;;
36315;SDS011;22343;50.820;2.666;2024-02-26T00:50:33;3.73;;;3.03;;
36315;SDS011;22343;50.820;2.666;2024-02-26T00:53:21;2.67;;;2.33;;
36315;SDS011;22343;50.820;2.666;2024-02-26T00:56:06;2.30;;;2.00;;
36315;SDS011;22343;50.820;2.666;2024-02-26T00:58:52;1.67;;;1.57;;
36315;SDS011;22343;50.820;2.666;2024-02-26T01:01:36;3.47;;;2.10;;
36315;SDS011;22343;50.820;2.666;2024-02-26T01:04:22;2.30;;;1.87;;
36315;SDS011;22343;50.820;2.666;2024-02-26T01:07:07;2.67;;;2.23;;
36315;SDS011;22343;50.820;2.666;2024-02-26T01:09:54;2.60;;;2.40;;
36315;SDS011;22343;50.820;2.666;2024-02-26T01:12:40;4.20;;;2.63;;
36315;SDS011;22343;50.820;2.666;2024-02-26T01:15:24;2.50;;;2.30;;
36315;SDS011;22343;50.820;2.666;2024-02-26T01:18:10;3.37;;;2.60;;
36315;SDS011;22343;50.820;2.666;2024-02-26T01:20:58;3.07;;;2.23;;
36315;SDS011;22343;50.820;2.666;2024-02-26T01:23:44;3.70;;;2.73;;
36315;SDS011;22343;50.820;2.666;2024-02-26T01:26:30;3.03;;;2.50;;
36315;SDS011;22343;50.820;2.666;2024-02-26T01:29:14;3.20;;;2.30;;
36315;SDS011;22343;50.820;2.666;2024-02-26T01:31:59;3.10;;;2.10;;
36315;SDS011;22343;50.820;2.666;2024-02-26T01:34:45;2.37;;;2.17;;
36315;SDS011;22343;50.820;2.666;2024-02-26T01:37:29;3.73;;;2.70;;
36315;SDS011;22343;50.820;2.666;2024-02-26T01:40:15;3.73;;;2.40;;
36315;SDS011;22343;50.820;2.666;2024-02-26T01:43:03;4.67;;;2.43;;
36315;SDS011;22343;50.820;2.666;2024-02-26T01:45:48;3.27;;;2.90;;
36315;SDS011;22343;50.820;2.666;2024-02-26T01:48:32;3.00;;;1.70;;
36315;SDS011;22343;50.820;2.666;2024-02-26T01:51:18;4.13;;;2.60;;
36315;SDS011;22343;50.820;2.666;2024-02-26T01:54:05;4.00;;;2.30;;
36315;SDS011;22343;50.820;2.666;2024-02-26T01:56:52;3.97;;;2.60;;
36315;SDS011;22343;50.820;2.666;2024-02-26T01:59:36;1.80;;;1.70;;
36315;SDS011;22343;50.820;2.666;2024-02-26T02:02:21;2.90;;;2.50;;
36315;SDS011;22343;50.820;2.666;2024-02-26T02:05:12;3.20;;;2.37;;
36315;SDS011;22343;50.820;2.666;2024-02-26T02:08:00;3.80;;;2.83;;
36315;SDS011;22343;50.820;2.666;2024-02-26T02:10:47;1.60;;;1.47;;
36315;SDS011;22343;50.820;2.666;2024-02-26T02:13:34;2.60;;;2.30;;
36315;SDS011;22343;50.820;2.666;2024-02-26T02:16:18;2.57;;;1.40;;
36315;SDS011;22343;50.820;2.666;2024-02-26T02:19:04;2.47;;;1.90;;
36315;SDS011;22343;50.820;2.666;2024-02-26T02:21:48;3.30;;;2.20;;
36315;SDS011;22343;50.820;2.666;2024-02-26T02:24:34;2.83;;;2.20;;
36315;SDS011;22343;50.820;2.666;2024-02-26T02:27:19;1.93;;;1.77;;
36315;SDS011;22343;50.820;2.666;2024-02-26T02:30:04;3.43;;;2.10;;
36315;SDS011;22343;50.820;2.666;2024-02-26T02:32:50;3.27;;;2.10;;
36315;SDS011;22343;50.820;2.666;2024-02-26T02:35:39;2.43;;;2.23;;
36315;SDS011;22343;50.820;2.666;2024-02-26T02:38:24;2.37;;;2.17;;
36315;SDS011;22343;50.820;2.666;2024-02-26T02:41:15;2.07;;;1.90;;
36315;SDS011;22343;50.820;2.666;2024-02-26T02:43:59;2.27;;;1.70;;
36315;SDS011;22343;50.820;2.666;2024-02-26T02:46:48;1.73;;;1.63;;
36315;SDS011;22343;50.820;2.666;2024-02-26T02:49:35;2.57;;;2.10;;
36315;SDS011;22343;50.820;2.666;2024-02-26T02:52:21;3.13;;;1.80;;
36315;SDS011;22343;50.820;2.666;2024-02-26T02:55:06;2.27;;;1.93;;
36315;SDS011;22343;50.820;2.666;2024-02-26T02:57:52;2.43;;;2.23;;
36315;SDS011;22343;50.820;2.666;2024-02-26T03:00:37;2.10;;;1.67;;
36315;SDS011;22343;50.820;2.666;2024-02-26T03:03:23;2.17;;;1.87;;
36315;SDS011;22343;50.820;2.666;2024-02-26T03:06:35;2.57;;;2.00;;
36315;SDS011;22343;50.820;2.666;2024-02-26T03:09:19;3.10;;;2.10;;
36315;SDS011;22343;50.820;2.666;2024-02-26T03:12:05;1.83;;;1.67;;
36315;SDS011;22343;50.820;2.666;2024-02-26T03:14:51;2.33;;;2.13;;
36315;SDS011;22343;50.820;2.666;2024-02-26T03:17:39;2.43;;;2.23;;
36315;SDS011;22343;50.820;2.666;2024-02-26T03:20:24;4.47;;;2.63;;
36315;SDS011;22343;50.820;2.666;2024-02-26T03:23:09;3.17;;;2.87;;
36315;SDS011;22343;50.820;2.666;2024-02-26T03:25:58;3.40;;;2.90;;
36315;SDS011;22343;50.820;2.666;2024-02-26T03:28:45;3.13;;;2.83;;
36315;SDS011;22343;50.820;2.666;2024-02-26T03:31:29;4.00;;;3.23;;
36315;SDS011;22343;50.820;2.666;2024-02-26T03:34:13;4.00;;;3.27;;
36315;SDS011;22343;50.820;2.666;2024-02-26T03:37:00;3.37;;;2.93;;
36315;SDS011;22343;50.820;2.666;2024-02-26T03:39:46;4.80;;;3.30;;
36315;SDS011;22343;50.820;2.666;2024-02-26T03:42:30;3.70;;;3.40;;
36315;SDS011;22343;50.820;2.666;2024-02-26T03:45:15;3.80;;;3.40;;
36315;SDS011;22343;50.820;2.666;2024-02-26T03:48:01;3.73;;;2.83;;
36315;SDS011;22343;50.820;2.666;2024-02-26T03:50:47;3.70;;;3.40;;
36315;SDS011;22343;50.820;2.666;2024-02-26T03:53:32;4.90;;;3.57;;
36315;SDS011;22343;50.820;2.666;2024-02-26T03:56:18;3.90;;;3.57;;
36315;SDS011;22343;50.820;2.666;2024-02-26T03:59:04;4.80;;;3.77;;
36315;SDS011;22343;50.820;2.666;2024-02-26T04:01:50;3.43;;;3.13;;
36315;SDS011;22343;50.820;2.666;2024-02-26T04:04:36;4.40;;;3.20;;
36315;SDS011;22343;50.820;2.666;2024-02-26T04:07:21;4.40;;;4.00;;
36315;SDS011;22343;50.820;2.666;2024-02-26T04:10:10;4.30;;;3.90;;
36315;SDS011;22343;50.820;2.666;2024-02-26T04:12:55;4.20;;;3.80;;
36315;SDS011;22343;50.820;2.666;2024-02-26T04:15:40;5.13;;;3.90;;
36315;SDS011;22343;50.820;2.666;2024-02-26T04:18:27;6.27;;;4.83;;
36315;SDS011;22343;50.820;2.666;2024-02-26T04:21:12;5.40;;;4.90;;
36315;SDS011;22343;50.820;2.666;2024-02-26T04:27:12;7.23;;;6.50;;
36315;SDS011;22343;50.820;2.666;2024-02-26T04:29:58;8.63;;;7.73;;
36315;SDS011;22343;50.820;2.666;2024-02-26T04:32:43;6.83;;;5.40;;
36315;SDS011;22343;50.820;2.666;2024-02-26T04:35:30;8.60;;;7.20;;
36315;SDS011;22343;50.820;2.666;2024-02-26T04:38:15;8.60;;;7.70;;
36315;SDS011;22343;50.820;2.666;2024-02-26T04:41:01;7.37;;;6.63;;
36315;SDS011;22343;50.820;2.666;2024-02-26T04:43:47;8.17;;;7.27;;
36315;SDS011;22343;50.820;2.666;2024-02-26T04:46:36;9.40;;;7.30;;
36315;SDS011;22343;50.820;2.666;2024-02-26T04:49:21;8.00;;;6.87;;
36315;SDS011;22343;50.820;2.666;2024-02-26T04:52:07;9.90;;;8.00;;
36315;SDS011;22343;50.820;2.666;2024-02-26T04:54:52;7.13;;;6.37;;
36315;SDS011;22343;50.820;2.666;2024-02-26T04:57:38;10.00;;;8.83;;
36315;SDS011;22343;50.820;2.666;2024-02-26T05:00:22;8.83;;;7.73;;
36315;SDS011;22343;50.820;2.666;2024-02-26T05:03:08;13.87;;;8.70;;
36315;SDS011;22343;50.820;2.666;2024-02-26T05:05:57;12.17;;;10.03;;
36315;SDS011;22343;50.820;2.666;2024-02-26T05:08:43;8.77;;;7.83;;
36315;SDS011;22343;50.820;2.666;2024-02-26T05:11:28;7.90;;;6.20;;
36315;SDS011;22343;50.820;2.666;2024-02-26T05:14:14;6.87;;;6.07;;
36315;SDS011;22343;50.820;2.666;2024-02-26T05:17:01;8.13;;;6.73;;
36315;SDS011;22343;50.820;2.666;2024-02-26T05:19:48;7.47;;;5.90;;
36315;SDS011;22343;50.820;2.666;2024-02-26T05:22:33;8.07;;;7.23;;
36315;SDS011;22343;50.820;2.666;2024-02-26T05:25:19;7.37;;;6.43;;
36315;SDS011;22343;50.820;2.666;2024-02-26T05:28:03;8.00;;;6.87;;
36315;SDS011;22343;50.820;2.666;2024-02-26T05:30:49;10.87;;;8.00;;
36315;SDS011;22343;50.820;2.666;2024-02-26T05:33:33;8.30;;;6.87;;
36315;SDS011;22343;50.820;2.666;2024-02-26T05:36:23;7.17;;;6.37;;
36315;SDS011;22343;50.820;2.666;2024-02-26T05:39:09;8.97;;;8.07;;
36315;SDS011;22343;50.820;2.666;2024-02-26T05:41:57;7.77;;;6.97;;
36315;SDS011;22343;50.820;2.666;2024-02-26T05:44:45;7.87;;;6.20;;
36315;SDS011;22343;50.820;2.666;2024-02-26T05:47:29;7.40;;;5.20;;
36315;SDS011;22343;50.820;2.666;2024-02-26T05:50:16;6.30;;;4.97;;
36315;SDS011;22343;50.820;2.666;2024-02-26T05:53:01;6.53;;;5.30;;
36315;SDS011;22343;50.820;2.666;2024-02-26T05:55:45;6.10;;;5.07;;
36315;SDS011;22343;50.820;2.666;2024-02-26T05:58:29;5.77;;;4.87;;
36315;SDS011;22343;50.820;2.666;2024-02-26T06:01:17;6.00;;;4.97;;
36315;SDS011;22343;50.820;2.666;2024-02-26T06:04:04;6.07;;;5.03;;
36315;SDS011;22343;50.820;2.666;2024-02-26T06:06:48;6.90;;;4.90;;
36315;SDS011;22343;50.820;2.666;2024-02-26T06:09:35;6.73;;;4.93;;
36315;SDS011;22343;50.820;2.666;2024-02-26T06:12:21;8.03;;;5.57;;
36315;SDS011;22343;50.820;2.666;2024-02-26T06:15:07;5.03;;;3.80;;
36315;SDS011;22343;50.820;2.666;2024-02-26T06:17:53;6.97;;;5.20;;
36315;SDS011;22343;50.820;2.666;2024-02-26T06:20:39;6.93;;;4.83;;
36315;SDS011;22343;50.820;2.666;2024-02-26T06:23:23;6.00;;;4.57;;
36315;SDS011;22343;50.820;2.666;2024-02-26T06:26:13;6.27;;;4.40;;
36315;SDS011;22343;50.820;2.666;2024-02-26T06:28:58;6.27;;;4.57;;
36315;SDS011;22343;50.820;2.666;2024-02-26T06:31:43;4.53;;;4.13;;
36315;SDS011;22343;50.820;2.666;2024-02-26T06:34:28;4.07;;;3.40;;
36315;SDS011;22343;50.820;2.666;2024-02-26T06:37:13;4.57;;;3.90;;
36315;SDS011;22343;50.820;2.666;2024-02-26T06:40:01;5.30;;;3.83;;
36315;SDS011;22343;50.820;2.666;2024-02-26T06:42:52;6.10;;;4.33;;
36315;SDS011;22343;50.820;2.666;2024-02-26T06:45:38;4.90;;;3.73;;
36315;SDS011;22343;50.820;2.666;2024-02-26T06:48:24;5.27;;;4.33;;
36315;SDS011;22343;50.820;2.666;2024-02-26T06:51:10;4.87;;;4.07;;
36315;SDS011;22343;50.820;2.666;2024-02-26T06:53:57;6.23;;;4.33;;
36315;SDS011;22343;50.820;2.666;2024-02-26T06:56:43;5.27;;;4.33;;
36315;SDS011;22343;50.820;2.666;2024-02-26T06:59:30;7.10;;;5.27;;
36315;SDS011;22343;50.820;2.666;2024-02-26T07:02:16;5.10;;;4.37;;
36315;SDS011;22343;50.820;2.666;2024-02-26T07:05:07;5.80;;;4.93;;
36315;SDS011;22343;50.820;2.666;2024-02-26T07:08:05;5.07;;;4.33;;
36315;SDS011;22343;50.820;2.666;2024-02-26T07:10:50;6.90;;;5.70;;
36315;SDS011;22343;50.820;2.666;2024-02-26T07:13:36;5.70;;;4.70;;
36315;SDS011;22343;50.820;2.666;2024-02-26T07:16:22;8.27;;;4.67;;
36315;SDS011;22343;50.820;2.666;2024-02-26T07:19:09;6.80;;;4.87;;
36315;SDS011;22343;50.820;2.666;2024-02-26T07:21:55;7.80;;;5.97;;
36315;SDS011;22343;50.820;2.666;2024-02-26T07:24:41;7.73;;;5.13;;
36315;SDS011;22343;50.820;2.666;2024-02-26T07:27:27;7.90;;;5.47;;
36315;SDS011;22343;50.820;2.666;2024-02-26T07:30:12;6.97;;;5.43;;
36315;SDS011;22343;50.820;2.666;2024-02-26T07:32:58;6.13;;;4.67;;
36315;SDS011;22343;50.820;2.666;2024-02-26T07:35:44;7.47;;;4.60;;
36315;SDS011;22343;50.820;2.666;2024-02-26T07:38:30;7.40;;;6.03;;
36315;SDS011;22343;50.820;2.666;2024-02-26T07:41:14;8.70;;;5.70;;
36315;SDS011;22343;50.820;2.666;2024-02-26T07:43:58;7.40;;;4.73;;
36315;SDS011;22343;50.820;2.666;2024-02-26T07:46:45;5.60;;;4.20;;
36315;SDS011;22343;50.820;2.666;2024-02-26T07:49:31;6.10;;;4.87;;
36315;SDS011;22343;50.820;2.666;2024-02-26T07:52:16;5.90;;;4.23;;
36315;SDS011;22343;50.820;2.666;2024-02-26T07:55:00;6.10;;;4.57;;
36315;SDS011;22343;50.820;2.666;2024-02-26T07:57:46;4.60;;;3.23;;
36315;SDS011;22343;50.820;2.666;2024-02-26T08:00:32;5.30;;;4.37;;
36315;SDS011;22343;50.820;2.666;2024-02-26T08:03:21;4.33;;;3.13;;
36315;SDS011;22343;50.820;2.666;2024-02-26T08:06:13;5.00;;;3.47;;
36315;SDS011;22343;50.820;2.666;2024-02-26T08:08:57;4.60;;;4.10;;
36315;SDS011;22343;50.820;2.666;2024-02-26T08:11:41;4.53;;;3.93;;
36315;SDS011;22343;50.820;2.666;2024-02-26T08:14:26;5.43;;;4.20;;
36315;SDS011;22343;50.820;2.666;2024-02-26T08:17:10;5.30;;;4.03;;
36315;SDS011;22343;50.820;2.666;2024-02-26T08:19:56;3.50;;;2.93;;
36315;SDS011;22343;50.820;2.666;2024-02-26T08:22:42;3.67;;;3.00;;
36315;SDS011;22343;50.820;2.666;2024-02-26T08:25:27;5.17;;;3.57;;
36315;SDS011;22343;50.820;2.666;2024-02-26T08:28:13;4.37;;;3.40;;
36315;SDS011;22343;50.820;2.666;2024-02-26T08:31:03;4.27;;;3.30;;
36315;SDS011;22343;50.820;2.666;2024-02-26T08:33:50;3.17;;;2.87;;
36315;SDS011;22343;50.820;2.666;2024-02-26T08:36:36;4.77;;;3.77;;
36315;SDS011;22343;50.820;2.666;2024-02-26T08:39:23;6.83;;;3.27;;
36315;SDS011;22343;50.820;2.666;2024-02-26T08:42:13;5.00;;;3.30;;
36315;SDS011;22343;50.820;2.666;2024-02-26T08:44:58;2.97;;;2.47;;
36315;SDS011;22343;50.820;2.666;2024-02-26T08:47:45;3.63;;;3.20;;
36315;SDS011;22343;50.820;2.666;2024-02-26T08:50:32;3.50;;;2.53;;
36315;SDS011;22343;50.820;2.666;2024-02-26T08:53:20;4.40;;;3.10;;
36315;SDS011;22343;50.820;2.666;2024-02-26T08:56:06;4.00;;;2.60;;
36315;SDS011;22343;50.820;2.666;2024-02-26T08:58:51;4.87;;;3.27;;
36315;SDS011;22343;50.820;2.666;2024-02-26T09:01:42;4.03;;;3.10;;
36315;SDS011;22343;50.820;2.666;2024-02-26T09:04:28;2.90;;;2.50;;
36315;SDS011;22343;50.820;2.666;2024-02-26T09:07:13;4.17;;;2.80;;
36315;SDS011;22343;50.820;2.666;2024-02-26T09:09:59;5.60;;;4.00;;
36315;SDS011;22343;50.820;2.666;2024-02-26T09:12:43;5.17;;;3.30;;
36315;SDS011;22343;50.820;2.666;2024-02-26T09:15:29;3.23;;;2.67;;
36315;SDS011;22343;50.820;2.666;2024-02-26T09:18:14;2.90;;;2.57;;
36315;SDS011;22343;50.820;2.666;2024-02-26T09:21:04;4.93;;;3.67;;
36315;SDS011;22343;50.820;2.666;2024-02-26T09:23:50;4.70;;;3.90;;
36315;SDS011;22343;50.820;2.666;2024-02-26T09:26:39;4.10;;;3.30;;
36315;SDS011;22343;50.820;2.666;2024-02-26T09:29:24;4.73;;;2.77;;
36315;SDS011;22343;50.820;2.666;2024-02-26T09:32:12;3.67;;;2.57;;
36315;SDS011;22343;50.820;2.666;2024-02-26T09:35:00;5.07;;;3.00;;
36315;SDS011;22343;50.820;2.666;2024-02-26T09:37:47;4.17;;;3.43;;
36315;SDS011;22343;50.820;2.666;2024-02-26T09:40:32;5.00;;;3.83;;
36315;SDS011;22343;50.820;2.666;2024-02-26T09:43:17;5.40;;;3.83;;
36315;SDS011;22343;50.820;2.666;2024-02-26T09:46:07;4.70;;;3.60;;
36315;SDS011;22343;50.820;2.666;2024-02-26T09:48:53;4.77;;;3.90;;
36315;SDS011;22343;50.820;2.666;2024-02-26T09:51:39;3.87;;;3.30;;
36315;SDS011;22343;50.820;2.666;2024-02-26T09:54:24;7.27;;;3.87;;
36315;SDS011;22343;50.820;2.666;2024-02-26T09:57:13;5.67;;;4.30;;
36315;SDS011;22343;50.820;2.666;2024-02-26T10:00:03;4.63;;;3.60;;
36315;SDS011;22343;50.820;2.666;2024-02-26T10:02:52;4.03;;;3.63;;
36315;SDS011;22343;50.820;2.666;2024-02-26T10:05:42;5.43;;;3.47;;
36315;SDS011;22343;50.820;2.666;2024-02-26T10:08:31;5.83;;;4.53;;
36315;SDS011;22343;50.820;2.666;2024-02-26T10:11:20;6.53;;;4.67;;
36315;SDS011;22343;50.820;2.666;2024-02-26T10:14:04;7.90;;;4.53;;
36315;SDS011;22343;50.820;2.666;2024-02-26T10:16:50;7.33;;;4.70;;
36315;SDS011;22343;50.820;2.666;2024-02-26T10:19:35;5.27;;;3.43;;
36315;SDS011;22343;50.820;2.666;2024-02-26T10:22:20;5.10;;;3.93;;
36315;SDS011;22343;50.820;2.666;2024-02-26T10:25:06;6.33;;;4.67;;
36315;SDS011;22343;50.820;2.666;2024-02-26T10:27:53;9.00;;;4.80;;
36315;SDS011;22343;50.820;2.666;2024-02-26T10:30:38;6.40;;;5.10;;
36315;SDS011;22343;50.820;2.666;2024-02-26T10:33:26;7.63;;;5.93;;
36315;SDS011;22343;50.820;2.666;2024-02-26T10:36:12;7.87;;;4.97;;
36315;SDS011;22343;50.820;2.666;2024-02-26T10:38:58;6.90;;;4.93;;
36315;SDS011;22343;50.820;2.666;2024-02-26T10:41:48;6.30;;;4.20;;
36315;SDS011;22343;50.820;2.666;2024-02-26T10:44:32;7.03;;;5.00;;
36315;SDS011;22343;50.820;2.666;2024-02-26T10:47:18;9.67;;;5.57;;
36315;SDS011;22343;50.820;2.666;2024-02-26T10:50:05;8.77;;;6.07;;
36315;SDS011;22343;50.820;2.666;2024-02-26T10:52:50;7.23;;;4.73;;
36315;SDS011;22343;50.820;2.666;2024-02-26T10:55:38;8.67;;;6.57;;
36315;SDS011;22343;50.820;2.666;2024-02-26T10:58:25;9.20;;;5.23;;
36315;SDS011;22343;50.820;2.666;2024-02-26T11:01:10;9.10;;;6.10;;
36315;SDS011;22343;50.820;2.666;2024-02-26T11:03:56;8.27;;;4.87;;
36315;SDS011;22343;50.820;2.666;2024-02-26T11:06:44;8.60;;;6.23;;
36315;SDS011;22343;50.820;2.666;2024-02-26T11:09:31;10.47;;;6.00;;
36315;SDS011;22343;50.820;2.666;2024-02-26T11:12:17;10.20;;;6.37;;
36315;SDS011;22343;50.820;2.666;2024-02-26T11:15:03;9.27;;;7.43;;
36315;SDS011;22343;50.820;2.666;2024-02-26T11:17:50;8.10;;;5.97;;
36315;SDS011;22343;50.820;2.666;2024-02-26T11:20:38;9.63;;;6.77;;
36315;SDS011;22343;50.820;2.666;2024-02-26T11:23:25;9.67;;;5.63;;
36315;SDS011;22343;50.820;2.666;2024-02-26T11:26:11;8.47;;;5.43;;
36315;SDS011;22343;50.820;2.666;2024-02-26T11:28:57;15.13;;;6.47;;
36315;SDS011;22343;50.820;2.666;2024-02-26T11:31:42;8.40;;;5.30;;
36315;SDS011;22343;50.820;2.666;2024-02-26T11:34:27;6.10;;;4.93;;
36315;SDS011;22343;50.820;2.666;2024-02-26T11:37:12;4.60;;;3.90;;
36315;SDS011;22343;50.820;2.666;2024-02-26T11:39:58;6.20;;;4.70;;
36315;SDS011;22343;50.820;2.666;2024-02-26T11:42:43;4.13;;;3.47;;
36315;SDS011;22343;50.820;2.666;2024-02-26T11:45:47;4.90;;;3.30;;
36315;SDS011;22343;50.820;2.666;2024-02-26T11:48:34;5.77;;;4.10;;
36315;SDS011;22343;50.820;2.666;2024-02-26T11:51:19;5.23;;;4.07;;
36315;SDS011;22343;50.820;2.666;2024-02-26T11:54:12;6.77;;;4.70;;
36315;SDS011;22343;50.820;2.666;2024-02-26T11:56:57;4.43;;;3.43;;
36315;SDS011;22343;50.820;2.666;2024-02-26T11:59:44;8.33;;;4.87;;
36315;SDS011;22343;50.820;2.666;2024-02-26T12:02:46;4.73;;;3.90;;
36315;SDS011;22343;50.820;2.666;2024-02-26T12:05:32;3.80;;;3.13;;
36315;SDS011;22343;50.820;2.666;2024-02-26T12:08:19;6.43;;;4.27;;
36315;SDS011;22343;50.820;2.666;2024-02-26T12:11:18;5.27;;;4.13;;
36315;SDS011;22343;50.820;2.666;2024-02-26T12:14:02;5.37;;;3.77;;
36315;SDS011;22343;50.820;2.666;2024-02-26T12:16:47;4.60;;;3.60;;
36315;SDS011;22343;50.820;2.666;2024-02-26T12:19:32;5.07;;;3.63;;
36315;SDS011;22343;50.820;2.666;2024-02-26T12:22:18;5.20;;;3.63;;
36315;SDS011;22343;50.820;2.666;2024-02-26T12:25:05;2.83;;;2.57;;
36315;SDS011;22343;50.820;2.666;2024-02-26T12:27:51;3.57;;;2.97;;
36315;SDS011;22343;50.820;2.666;2024-02-26T12:30:36;4.03;;;3.57;;
36315;SDS011;22343;50.820;2.666;2024-02-26T12:33:20;3.87;;;2.77;;
36315;SDS011;22343;50.820;2.666;2024-02-26T12:36:06;5.10;;;3.93;;
36315;SDS011;22343;50.820;2.666;2024-02-26T12:38:52;3.93;;;2.97;;
36315;SDS011;22343;50.820;2.666;2024-02-26T12:41:37;3.70;;;3.10;;
36315;SDS011;22343;50.820;2.666;2024-02-26T12:44:25;5.17;;;3.27;;
36315;SDS011;22343;50.820;2.666;2024-02-26T12:47:10;4.37;;;2.80;;
36315;SDS011;22343;50.820;2.666;2024-02-26T12:50:00;3.77;;;2.60;;
36315;SDS011;22343;50.820;2.666;2024-02-26T12:52:50;4.43;;;2.73;;
36315;SDS011;22343;50.820;2.666;2024-02-26T12:55:35;5.83;;;3.27;;
36315;SDS011;22343;50.820;2.666;2024-02-26T12:58:24;11.07;;;3.53;;
36315;SDS011;22343;50.820;2.666;2024-02-26T13:01:09;4.90;;;3.40;;
36315;SDS011;22343;50.820;2.666;2024-02-26T13:03:59;3.77;;;3.07;;
36315;SDS011;22343;50.820;2.666;2024-02-26T13:06:50;5.03;;;3.23;;
36315;SDS011;22343;50.820;2.666;2024-02-26T13:09:36;9.90;;;4.00;;
36315;SDS011;22343;50.820;2.666;2024-02-26T13:12:22;5.37;;;3.17;;
36315;SDS011;22343;50.820;2.666;2024-02-26T13:15:08;2.67;;;2.37;;
36315;SDS011;22343;50.820;2.666;2024-02-26T13:18:08;5.97;;;2.80;;
36315;SDS011;22343;50.820;2.666;2024-02-26T13:21:12;3.03;;;2.23;;
36315;SDS011;22343;50.820;2.666;2024-02-26T13:23:57;3.73;;;3.40;;
36315;SDS011;22343;50.820;2.666;2024-02-26T13:26:43;4.50;;;2.80;;
36315;SDS011;22343;50.820;2.666;2024-02-26T13:29:27;2.13;;;1.93;;
36315;SDS011;22343;50.820;2.666;2024-02-26T13:32:11;5.13;;;3.00;;
36315;SDS011;22343;50.820;2.666;2024-02-26T13:35:08;3.23;;;2.80;;
36315;SDS011;22343;50.820;2.666;2024-02-26T13:37:55;4.10;;;3.13;;
36315;SDS011;22343;50.820;2.666;2024-02-26T13:40:40;3.50;;;3.00;;
36315;SDS011;22343;50.820;2.666;2024-02-26T13:43:26;3.47;;;2.43;;
36315;SDS011;22343;50.820;2.666;2024-02-26T13:46:11;5.87;;;3.53;;
36315;SDS011;22343;50.820;2.666;2024-02-26T13:48:57;3.57;;;2.73;;
36315;SDS011;22343;50.820;2.666;2024-02-26T13:51:43;2.50;;;2.10;;
36315;SDS011;22343;50.820;2.666;2024-02-26T13:54:28;3.57;;;2.87;;
36315;SDS011;22343;50.820;2.666;2024-02-26T13:57:13;3.23;;;2.43;;
36315;SDS011;22343;50.820;2.666;2024-02-26T14:00:00;5.37;;;3.10;;
36315;SDS011;22343;50.820;2.666;2024-02-26T14:02:46;3.87;;;2.50;;
36315;SDS011;22343;50.820;2.666;2024-02-26T14:05:31;5.73;;;2.40;;
36315;SDS011;22343;50.820;2.666;2024-02-26T14:08:18;3.30;;;2.60;;
36315;SDS011;22343;50.820;2.666;2024-02-26T14:11:03;3.27;;;2.97;;
36315;SDS011;22343;50.820;2.666;2024-02-26T14:13:48;4.20;;;2.80;;
36315;SDS011;22343;50.820;2.666;2024-02-26T14:16:35;3.93;;;2.60;;
36315;SDS011;22343;50.820;2.666;2024-02-26T14:19:20;3.23;;;2.83;;
36315;SDS011;22343;50.820;2.666;2024-02-26T14:22:06;3.90;;;3.00;;
36315;SDS011;22343;50.820;2.666;2024-02-26T14:24:53;3.30;;;2.90;;
36315;SDS011;22343;50.820;2.666;2024-02-26T14:27:39;4.43;;;3.10;;
36315;SDS011;22343;50.820;2.666;2024-02-26T14:30:25;3.33;;;2.80;;
36315;SDS011;22343;50.820;2.666;2024-02-26T14:33:12;3.83;;;2.77;;
36315;SDS011;22343;50.820;2.666;2024-02-26T14:35:58;4.03;;;2.83;;
36315;SDS011;22343;50.820;2.666;2024-02-26T14:38:42;4.53;;;3.67;;
36315;SDS011;22343;50.820;2.666;2024-02-26T14:41:28;5.93;;;3.07;;
36315;SDS011;22343;50.820;2.666;2024-02-26T14:44:12;6.40;;;3.47;;
36315;SDS011;22343;50.820;2.666;2024-02-26T14:46:57;4.90;;;2.90;;
36315;SDS011;22343;50.820;2.666;2024-02-26T14:49:47;4.07;;;3.03;;
36315;SDS011;22343;50.820;2.666;2024-02-26T14:52:34;4.90;;;2.70;;
36315;SDS011;22343;50.820;2.666;2024-02-26T14:55:21;7.97;;;3.60;;
36315;SDS011;22343;50.820;2.666;2024-02-26T14:58:07;6.83;;;3.30;;
36315;SDS011;22343;50.820;2.666;2024-02-26T15:00:58;5.63;;;3.40;;
36315;SDS011;22343;50.820;2.666;2024-02-26T15:03:43;6.17;;;3.57;;
36315;SDS011;22343;50.820;2.666;2024-02-26T15:06:32;7.37;;;3.50;;
36315;SDS011;22343;50.820;2.666;2024-02-26T15:09:20;4.60;;;3.57;;
36315;SDS011;22343;50.820;2.666;2024-02-26T15:12:06;5.60;;;3.07;;
36315;SDS011;22343;50.820;2.666;2024-02-26T15:14:51;4.83;;;3.23;;
36315;SDS011;22343;50.820;2.666;2024-02-26T15:17:40;7.23;;;3.43;;
36315;SDS011;22343;50.820;2.666;2024-02-26T15:20:25;5.40;;;3.87;;
36315;SDS011;22343;50.820;2.666;2024-02-26T15:23:11;6.90;;;3.53;;
36315;SDS011;22343;50.820;2.666;2024-02-26T15:26:00;6.47;;;3.60;;
36315;SDS011;22343;50.820;2.666;2024-02-26T15:28:46;6.10;;;3.60;;
36315;SDS011;22343;50.820;2.666;2024-02-26T15:31:32;4.10;;;3.13;;
36315;SDS011;22343;50.820;2.666;2024-02-26T15:34:21;6.30;;;3.83;;
36315;SDS011;22343;50.820;2.666;2024-02-26T15:37:06;5.30;;;3.53;;
36315;SDS011;22343;50.820;2.666;2024-02-26T15:39:51;7.10;;;3.30;;
36315;SDS011;22343;50.820;2.666;2024-02-26T15:42:38;3.50;;;2.77;;
36315;SDS011;22343;50.820;2.666;2024-02-26T15:45:23;5.00;;;3.03;;
36315;SDS011;22343;50.820;2.666;2024-02-26T15:48:11;5.60;;;3.33;;
36315;SDS011;22343;50.820;2.666;2024-02-26T15:50:56;7.20;;;3.93;;
36315;SDS011;22343;50.820;2.666;2024-02-26T15:53:40;6.03;;;2.90;;
36315;SDS011;22343;50.820;2.666;2024-02-26T15:56:26;7.87;;;3.87;;
36315;SDS011;22343;50.820;2.666;2024-02-26T15:59:11;8.10;;;3.70;;
36315;SDS011;22343;50.820;2.666;2024-02-26T16:01:57;6.33;;;4.27;;
36315;SDS011;22343;50.820;2.666;2024-02-26T16:04:43;7.60;;;4.50;;
36315;SDS011;22343;50.820;2.666;2024-02-26T16:07:30;9.00;;;4.73;;
36315;SDS011;22343;50.820;2.666;2024-02-26T16:10:18;4.93;;;3.33;;
36315;SDS011;22343;50.820;2.666;2024-02-26T16:13:04;4.77;;;3.30;;
36315;SDS011;22343;50.820;2.666;2024-02-26T16:15:51;8.00;;;4.10;;
36315;SDS011;22343;50.820;2.666;2024-02-26T16:18:45;7.00;;;3.60;;
36315;SDS011;22343;50.820;2.666;2024-02-26T16:21:33;7.93;;;4.00;;
36315;SDS011;22343;50.820;2.666;2024-02-26T16:24:17;4.30;;;3.47;;
36315;SDS011;22343;50.820;2.666;2024-02-26T16:27:03;8.53;;;4.07;;
36315;SDS011;22343;50.820;2.666;2024-02-26T16:29:50;8.63;;;4.00;;
36315;SDS011;22343;50.820;2.666;2024-02-26T16:32:35;6.50;;;3.77;;
36315;SDS011;22343;50.820;2.666;2024-02-26T16:35:25;6.27;;;3.67;;
36315;SDS011;22343;50.820;2.666;2024-02-26T16:38:10;7.63;;;3.93;;
36315;SDS011;22343;50.820;2.666;2024-02-26T16:40:56;7.97;;;3.87;;
36315;SDS011;22343;50.820;2.666;2024-02-26T16:43:43;6.67;;;3.10;;
36315;SDS011;22343;50.820;2.666;2024-02-26T16:46:31;6.57;;;3.40;;